createdAt,value
2022-11-16T00:00:05.963Z,33.13
2022-11-16T00:02:33.280Z,31.98
2022-11-16T00:05:00.217Z,33.72
2022-11-16T00:07:27.185Z,34.67
2022-11-16T00:09:54.316Z,33.17
2022-11-16T00:12:21.325Z,32.92
2022-11-16T00:14:48.213Z,33.00
2022-11-16T00:17:14.870Z,33.13
2022-11-16T00:19:41.484Z,33.30
2022-11-16T00:22:08.120Z,34.38
2022-11-16T00:24:34.752Z,33.40
2022-11-16T00:27:01.443Z,33.67
2022-11-16T00:29:28.223Z,33.83
2022-11-16T00:31:55.481Z,34.22
2022-11-16T00:34:23.110Z,35.75
2022-11-16T00:36:50.307Z,38.60
2022-11-16T00:39:19.017Z,36.30
2022-11-16T00:41:46.902Z,36.05
2022-11-16T00:44:13.694Z,36.08
2022-11-16T00:46:40.582Z,36.70
2022-11-16T00:49:07.605Z,35.22
2022-11-16T00:51:34.883Z,34.95
2022-11-16T00:54:02.868Z,35.45
2022-11-16T00:56:30.564Z,32.00
2022-11-16T00:58:57.525Z,32.80
2022-11-16T01:01:24.388Z,32.17
2022-11-16T01:03:51.298Z,31.55
2022-11-16T01:06:20.331Z,30.80
2022-11-16T01:08:47.174Z,30.85
2022-11-16T01:11:33.814Z,31.63
2022-11-16T01:14:02.454Z,30.65
2022-11-16T01:16:29.253Z,32.67
2022-11-16T01:18:56.142Z,30.80
2022-11-16T01:21:24.264Z,31.98
2022-11-16T01:23:51.439Z,31.10
2022-11-16T01:26:18.523Z,30.38
2022-11-16T01:28:45.750Z,32.80
2022-11-16T01:31:13.300Z,31.23
2022-11-16T01:33:41.042Z,33.13
2022-11-16T01:36:15.270Z,33.15
2022-11-16T01:38:43.368Z,31.60
2022-11-16T01:41:13.490Z,32.13
2022-11-16T01:43:51.632Z,32.85
2022-11-16T01:46:18.754Z,33.30
2022-11-16T01:48:45.763Z,32.53
2022-11-16T01:51:13.008Z,33.97
2022-11-16T01:53:40.503Z,33.75
2022-11-16T01:56:08.435Z,38.10
2022-11-16T01:58:54.134Z,40.08
2022-11-16T02:01:24.956Z,42.70
2022-11-16T02:03:55.565Z,40.75
2022-11-16T02:06:37.821Z,39.35
2022-11-16T02:09:36.269Z,37.50
2022-11-16T02:12:12.122Z,36.42
2022-11-16T02:14:57.801Z,33.95
2022-11-16T02:17:24.821Z,34.50
2022-11-16T02:19:51.572Z,29.75
2022-11-16T02:22:27.530Z,30.08
2022-11-16T02:25:07.967Z,32.03
2022-11-16T02:27:40.859Z,31.48
2022-11-16T02:30:07.905Z,30.45
2022-11-16T02:32:42.199Z,30.08
2022-11-16T02:35:21.087Z,28.95
2022-11-16T02:37:57.959Z,28.95
2022-11-16T02:40:26.583Z,28.30
2022-11-16T02:42:58.081Z,27.92
2022-11-16T02:45:27.185Z,29.90
2022-11-16T02:47:56.000Z,29.17
2022-11-16T02:50:23.869Z,28.65
2022-11-16T02:52:54.794Z,27.27
2022-11-16T02:55:25.790Z,29.02
2022-11-16T02:57:55.640Z,26.63
2022-11-16T03:00:27.803Z,25.50
2022-11-16T03:02:57.618Z,26.02
2022-11-16T03:05:32.213Z,25.73
2022-11-16T03:08:23.122Z,23.13
2022-11-16T03:11:11.926Z,23.92
2022-11-16T03:13:40.974Z,24.48
2022-11-16T03:16:11.412Z,24.38
2022-11-16T03:18:39.949Z,24.00
2022-11-16T03:21:24.873Z,24.60
2022-11-16T03:23:51.926Z,25.55
2022-11-16T03:26:21.050Z,24.05
2022-11-16T03:28:51.555Z,23.65
2022-11-16T03:31:28.010Z,25.33
2022-11-16T03:33:57.522Z,24.52
2022-11-16T03:36:31.213Z,24.73
2022-11-16T03:39:01.593Z,25.33
2022-11-16T03:41:30.840Z,25.98
2022-11-16T03:43:58.453Z,25.10
2022-11-16T03:46:25.249Z,25.85
2022-11-16T03:48:56.953Z,28.40
2022-11-16T03:51:26.954Z,26.10
2022-11-16T03:53:54.805Z,26.77
2022-11-16T03:56:23.015Z,26.15
2022-11-16T03:58:50.019Z,27.38
2022-11-16T04:01:19.866Z,26.05
2022-11-16T04:03:48.061Z,27.20
2022-11-16T04:06:35.957Z,25.45
2022-11-16T04:09:23.647Z,25.85
2022-11-16T04:12:09.164Z,25.48
2022-11-16T04:14:56.136Z,24.17
2022-11-16T04:17:44.423Z,25.00
2022-11-16T04:20:31.834Z,25.48
2022-11-16T04:23:29.342Z,22.92
2022-11-16T04:25:56.966Z,24.73
2022-11-16T04:28:25.784Z,23.50
2022-11-16T04:31:19.421Z,24.80
2022-11-16T04:34:14.316Z,24.77
2022-11-16T04:37:04.615Z,24.08
2022-11-16T04:39:32.992Z,24.08
2022-11-16T04:42:20.193Z,23.27
2022-11-16T04:45:09.274Z,23.23
2022-11-16T04:47:44.810Z,23.43
2022-11-16T04:50:12.517Z,22.73
2022-11-16T04:52:40.889Z,22.50
2022-11-16T04:55:10.876Z,22.33
2022-11-16T04:57:38.179Z,21.08
2022-11-16T05:00:07.022Z,20.75
2022-11-16T05:02:36.051Z,18.20
2022-11-16T05:05:03.437Z,17.67
2022-11-16T05:07:30.362Z,16.70
2022-11-16T05:10:07.542Z,16.75
2022-11-16T05:12:34.674Z,14.88
2022-11-16T05:15:08.605Z,15.57
2022-11-16T05:17:35.495Z,14.32
2022-11-16T05:20:24.245Z,12.52
2022-11-16T05:22:57.765Z,12.32
2022-11-16T05:25:33.870Z,11.63
2022-11-16T05:28:05.476Z,11.73
2022-11-16T05:30:35.846Z,11.20
2022-11-16T05:33:03.710Z,11.68
2022-11-16T05:35:33.906Z,11.85
2022-11-16T05:38:02.851Z,11.93
2022-11-16T05:40:34.313Z,12.20
2022-11-16T05:43:01.507Z,12.25
2022-11-16T05:45:36.000Z,13.15
2022-11-16T05:48:02.909Z,13.00
2022-11-16T05:50:29.745Z,13.48
2022-11-16T05:53:14.788Z,13.52
2022-11-16T05:55:41.835Z,13.98
2022-11-16T05:58:09.066Z,14.52
2022-11-16T06:00:35.939Z,14.80
2022-11-16T06:03:04.709Z,15.77
2022-11-16T06:05:40.078Z,14.93
2022-11-16T06:08:09.180Z,16.27
2022-11-16T06:10:37.185Z,15.95
2022-11-16T06:13:05.386Z,17.60
2022-11-16T06:15:36.225Z,17.38
2022-11-16T06:18:03.040Z,18.08
2022-11-16T06:20:29.859Z,17.70
2022-11-16T06:22:56.990Z,19.50
2022-11-16T06:25:24.793Z,20.98
2022-11-16T06:27:51.505Z,18.73
2022-11-16T06:30:19.495Z,19.23
2022-11-16T06:32:46.936Z,19.77
2022-11-16T06:35:15.518Z,18.92
2022-11-16T06:37:42.836Z,18.45
2022-11-16T06:40:11.964Z,17.35
2022-11-16T06:42:42.787Z,18.00
2022-11-16T06:45:11.495Z,18.23
2022-11-16T06:47:52.167Z,18.58
2022-11-16T06:50:26.200Z,22.98
2022-11-16T06:52:57.953Z,19.38
2022-11-16T06:55:27.001Z,20.65
2022-11-16T06:57:57.129Z,18.17
2022-11-16T07:00:23.835Z,18.65
2022-11-16T07:02:55.921Z,18.20
2022-11-16T07:08:00.142Z,17.83
2022-11-16T07:10:27.470Z,17.80
2022-11-16T07:12:54.454Z,18.60
2022-11-16T07:15:27.670Z,18.77
2022-11-16T07:17:57.110Z,19.02
2022-11-16T07:20:27.287Z,20.63
2022-11-16T07:23:03.721Z,20.42
2022-11-16T07:25:32.212Z,20.02
2022-11-16T07:28:06.353Z,19.10
2022-11-16T07:30:38.322Z,19.10
2022-11-16T07:33:14.376Z,20.58
2022-11-16T07:36:14.201Z,19.90
2022-11-16T07:38:43.432Z,19.45
2022-11-16T07:41:17.082Z,20.25
2022-11-16T07:43:56.980Z,20.17
2022-11-16T07:46:46.124Z,20.85
2022-11-16T07:49:21.052Z,21.10
2022-11-16T07:52:01.149Z,20.73
2022-11-16T07:54:42.664Z,20.48
2022-11-16T07:57:11.917Z,21.60
2022-11-16T07:59:41.961Z,21.88
2022-11-16T08:02:17.096Z,23.50
2022-11-16T08:04:50.289Z,23.48
2022-11-16T08:07:28.369Z,23.85
2022-11-16T08:12:31.422Z,22.05
2022-11-16T08:14:58.176Z,25.15
2022-11-16T08:17:31.665Z,26.25
2022-11-16T08:20:02.378Z,24.67
2022-11-16T08:22:43.049Z,24.90
2022-11-16T08:25:22.014Z,24.55
2022-11-16T08:27:55.063Z,25.83
2022-11-16T08:30:27.885Z,25.35
2022-11-16T08:32:59.400Z,27.73
2022-11-16T08:35:30.269Z,26.80
2022-11-16T08:37:58.006Z,25.63
2022-11-16T08:43:15.536Z,27.55
2022-11-16T08:45:52.565Z,23.50
2022-11-16T08:48:28.226Z,26.25
2022-11-16T08:51:16.573Z,23.58
2022-11-16T08:53:49.460Z,23.65
2022-11-16T08:56:20.650Z,23.42
2022-11-16T08:58:50.277Z,24.27
2022-11-16T09:01:26.615Z,23.88
2022-11-16T09:03:54.002Z,23.30
2022-11-16T09:06:23.784Z,23.42
2022-11-16T09:08:56.242Z,24.13
2022-11-16T09:11:25.291Z,24.65
2022-11-16T09:13:56.281Z,24.88
2022-11-16T09:16:34.111Z,23.67
2022-11-16T09:19:10.298Z,24.15
2022-11-16T09:21:42.325Z,24.52
2022-11-16T09:24:12.077Z,30.65
2022-11-16T09:26:43.865Z,25.63
2022-11-16T09:29:16.925Z,24.27
2022-11-16T09:31:48.766Z,24.02
2022-11-16T09:34:18.633Z,28.70
2022-11-16T09:36:45.351Z,27.88
2022-11-16T09:39:30.766Z,24.98
2022-11-16T09:42:13.216Z,23.85
2022-11-16T09:44:56.646Z,23.55
2022-11-16T09:47:39.066Z,23.25
2022-11-16T09:50:11.738Z,23.67
2022-11-16T09:52:41.386Z,22.83
2022-11-16T09:55:28.887Z,21.52
2022-11-16T09:58:02.149Z,21.05
2022-11-16T10:00:31.129Z,22.63
2022-11-16T10:03:19.213Z,22.33
2022-11-16T10:05:57.226Z,22.27
2022-11-16T10:08:35.648Z,22.00
2022-11-16T10:11:35.720Z,21.25
2022-11-16T10:14:20.188Z,23.50
2022-11-16T10:17:12.297Z,23.75
2022-11-16T10:19:59.574Z,21.45
2022-11-16T10:22:41.952Z,22.35
2022-11-16T10:25:15.136Z,21.95
2022-11-16T10:27:53.809Z,22.05
2022-11-16T10:30:31.738Z,21.05
2022-11-16T10:33:02.173Z,21.27
2022-11-16T10:35:54.275Z,22.83
2022-11-16T10:38:39.273Z,20.30
2022-11-16T10:41:22.705Z,20.30
2022-11-16T10:46:55.561Z,19.70
2022-11-16T10:49:40.570Z,20.75
2022-11-16T10:52:13.724Z,19.65
2022-11-16T10:54:50.971Z,19.00
2022-11-16T10:57:17.915Z,18.83
2022-11-16T10:59:48.494Z,19.35
2022-11-16T11:02:31.358Z,18.00
2022-11-16T11:05:05.961Z,18.75
2022-11-16T11:07:42.181Z,17.23
2022-11-16T11:10:47.821Z,18.35
2022-11-16T11:13:24.471Z,18.73
2022-11-16T11:15:56.766Z,20.02
2022-11-16T11:18:30.166Z,17.35
2022-11-16T11:21:12.366Z,17.42
2022-11-16T11:24:42.922Z,19.33
2022-11-16T11:27:07.193Z,18.38
2022-11-16T11:29:40.938Z,18.00
2022-11-16T11:32:23.528Z,20.42
2022-11-16T11:34:54.679Z,22.77
2022-11-16T11:37:33.797Z,18.42
2022-11-16T11:40:11.294Z,17.48
2022-11-16T11:42:41.404Z,17.10
2022-11-16T11:45:14.996Z,16.33
2022-11-16T11:47:58.086Z,17.63
2022-11-16T11:50:48.278Z,17.55
2022-11-16T11:53:26.767Z,16.38
2022-11-16T11:56:06.665Z,15.20
2022-11-16T11:58:39.310Z,17.45
2022-11-16T12:01:23.799Z,16.77
2022-11-16T12:03:54.649Z,17.15
2022-11-16T12:06:44.688Z,18.73
2022-11-16T12:12:39.736Z,18.07
2022-11-16T12:15:26.329Z,17.98
2022-11-16T12:18:03.329Z,17.88
2022-11-16T12:20:56.044Z,19.25
2022-11-16T12:23:43.866Z,16.90
2022-11-16T12:26:16.905Z,19.25
2022-11-16T12:29:14.401Z,19.27
2022-11-16T12:31:41.655Z,18.55
2022-11-16T12:34:14.562Z,18.52
2022-11-16T12:37:00.982Z,18.27
2022-11-16T12:39:28.334Z,18.17
2022-11-16T12:42:04.548Z,19.60
2022-11-16T12:44:53.997Z,19.52
2022-11-16T12:47:34.462Z,19.55
2022-11-16T12:50:22.297Z,19.58
2022-11-16T12:52:55.235Z,19.35
2022-11-16T12:55:46.682Z,20.20
2022-11-16T12:58:16.704Z,20.70
2022-11-16T13:00:49.868Z,19.80
2022-11-16T13:03:23.534Z,19.95
2022-11-16T13:05:56.857Z,19.30
2022-11-16T13:08:23.791Z,20.52
2022-11-16T13:10:52.549Z,20.15
2022-11-16T13:13:41.457Z,21.95
2022-11-16T13:16:17.387Z,20.98
2022-11-16T13:18:44.699Z,19.83
2022-11-16T13:21:14.575Z,18.90
2022-11-16T13:23:46.356Z,18.75
2022-11-16T13:26:20.328Z,19.27
2022-11-16T13:29:06.069Z,17.85
2022-11-16T13:31:56.565Z,18.83
2022-11-16T13:34:25.972Z,19.52
2022-11-16T13:36:55.337Z,18.52
2022-11-16T13:39:42.387Z,18.70
2022-11-16T13:42:17.162Z,18.52
2022-11-16T13:44:51.265Z,18.52
2022-11-16T13:47:24.231Z,19.58
2022-11-16T13:50:01.984Z,19.40
2022-11-16T13:53:40.848Z,19.80
2022-11-16T13:55:42.300Z,20.30
2022-11-16T13:58:14.179Z,19.58
2022-11-16T14:00:57.387Z,19.55
2022-11-16T14:03:33.421Z,19.30
2022-11-16T14:06:11.655Z,20.08
2022-11-16T14:08:40.441Z,20.15
2022-11-16T14:11:28.660Z,20.35
2022-11-16T14:14:03.664Z,19.35
2022-11-16T14:16:33.149Z,18.70
2022-11-16T14:19:07.872Z,20.35
2022-11-16T14:24:22.227Z,19.90
2022-11-16T14:27:02.669Z,18.33
2022-11-16T14:29:44.697Z,19.45
2022-11-16T14:32:25.032Z,19.47
2022-11-16T14:35:03.410Z,18.90
2022-11-16T14:37:39.261Z,19.60
2022-11-16T14:40:18.346Z,19.90
2022-11-16T14:43:15.540Z,21.17
2022-11-16T14:45:41.130Z,19.70
2022-11-16T14:48:17.341Z,20.20
2022-11-16T14:50:51.816Z,19.40
2022-11-16T14:53:23.140Z,21.40
2022-11-16T14:56:02.130Z,20.60
2022-11-16T14:58:31.212Z,19.00
2022-11-16T15:01:09.834Z,19.73
2022-11-16T15:03:47.674Z,19.35
2022-11-16T15:06:20.243Z,20.70
2022-11-16T15:08:54.262Z,20.50
2022-11-16T15:11:52.064Z,19.40
2022-11-16T15:14:32.667Z,18.10
2022-11-16T15:17:01.481Z,19.38
2022-11-16T15:19:31.907Z,19.25
2022-11-16T15:22:11.296Z,19.70
2022-11-16T15:24:44.712Z,18.42
2022-11-16T15:27:37.413Z,19.02
2022-11-16T15:30:15.879Z,18.65
2022-11-16T15:32:50.112Z,18.33
2022-11-16T15:35:33.334Z,19.58
2022-11-16T15:38:03.800Z,19.83
2022-11-16T15:40:40.694Z,20.40
2022-11-16T15:43:16.835Z,22.33
2022-11-16T15:45:46.986Z,22.33
2022-11-16T15:48:28.484Z,19.38
2022-11-16T15:51:14.941Z,19.63
2022-11-16T15:53:43.955Z,18.33
2022-11-16T15:56:27.973Z,17.67
2022-11-16T15:59:04.510Z,18.95
2022-11-16T16:01:36.885Z,17.55
2022-11-16T16:04:12.426Z,20.45
2022-11-16T16:06:50.600Z,20.33
2022-11-16T16:09:27.049Z,19.42
2022-11-16T16:12:00.156Z,19.42
2022-11-16T16:14:35.949Z,18.38
2022-11-16T16:17:13.833Z,20.95
2022-11-16T16:19:44.754Z,21.42
2022-11-16T16:22:15.715Z,20.08
2022-11-16T16:24:47.304Z,19.42
2022-11-16T16:27:22.098Z,22.63
2022-11-16T16:29:58.700Z,24.17
2022-11-16T16:32:33.084Z,21.40
2022-11-16T16:35:03.810Z,23.90
2022-11-16T16:37:31.241Z,21.33
2022-11-16T16:40:12.167Z,20.58
2022-11-16T16:42:41.367Z,22.95
2022-11-16T16:45:46.039Z,18.52
2022-11-16T16:48:15.568Z,18.23
2022-11-16T16:50:47.092Z,20.08
2022-11-16T16:53:17.804Z,20.40
2022-11-16T16:58:17.919Z,28.23
2022-11-16T17:00:51.895Z,26.83
2022-11-16T17:03:27.730Z,24.30
2022-11-16T17:06:06.029Z,22.40
2022-11-16T17:08:41.824Z,21.83
2022-11-16T17:11:09.036Z,22.98
2022-11-16T17:13:42.216Z,21.95
2022-11-16T17:16:13.350Z,22.42
2022-11-16T17:18:45.465Z,22.35
2022-11-16T17:21:29.021Z,21.45
2022-11-16T17:24:01.064Z,20.80
2022-11-16T17:26:36.650Z,21.05
2022-11-16T17:29:12.907Z,20.80
2022-11-16T17:31:48.506Z,20.98
2022-11-16T17:34:18.512Z,25.80
2022-11-16T17:36:54.189Z,22.67
2022-11-16T17:39:25.756Z,21.90
2022-11-16T17:41:56.415Z,21.90
2022-11-16T17:44:23.442Z,20.85
2022-11-16T17:46:51.129Z,22.20
2022-11-16T17:49:21.147Z,21.83
2022-11-16T17:51:54.645Z,20.60
2022-11-16T17:54:22.991Z,20.73
2022-11-16T17:56:53.070Z,22.50
2022-11-16T17:59:29.532Z,24.40
2022-11-16T18:02:02.959Z,24.70
2022-11-16T18:07:02.083Z,19.13
2022-11-16T18:09:30.189Z,21.15
2022-11-16T18:11:59.601Z,19.75
2022-11-16T18:14:32.326Z,19.67
2022-11-16T18:17:06.339Z,20.65
2022-11-16T18:19:38.130Z,21.38
2022-11-16T18:22:07.443Z,21.08
2022-11-16T18:24:42.766Z,22.75
2022-11-16T18:27:14.760Z,22.23
2022-11-16T18:29:44.267Z,19.88
2022-11-16T18:32:12.301Z,20.27
2022-11-16T18:34:53.369Z,20.80
2022-11-16T18:37:23.162Z,18.17
2022-11-16T18:39:53.273Z,18.20
2022-11-16T18:42:26.246Z,21.98
2022-11-16T18:44:55.702Z,20.63
2022-11-16T18:47:31.998Z,19.00
2022-11-16T18:50:02.153Z,20.23
2022-11-16T18:52:36.388Z,23.35
2022-11-16T18:55:06.219Z,17.55
2022-11-16T18:57:34.490Z,18.42
2022-11-16T19:00:03.725Z,20.88
2022-11-16T19:02:33.254Z,17.77
2022-11-16T19:05:07.936Z,20.63
2022-11-16T19:07:35.561Z,21.20
2022-11-16T19:10:05.012Z,20.33
2022-11-16T19:12:34.622Z,20.75
2022-11-16T19:15:04.423Z,20.17
2022-11-16T19:17:31.290Z,20.50
2022-11-16T19:20:04.881Z,18.85
2022-11-16T19:22:37.519Z,18.65
2022-11-16T19:25:07.036Z,19.08
2022-11-16T19:27:37.803Z,20.42
2022-11-16T19:32:40.583Z,19.83
2022-11-16T19:35:12.009Z,21.77
2022-11-16T19:37:45.156Z,20.73
2022-11-16T19:40:22.215Z,22.05
2022-11-16T19:42:57.141Z,22.15
2022-11-16T19:45:23.996Z,21.85
2022-11-16T19:47:55.971Z,23.55
2022-11-16T19:50:29.020Z,21.05
2022-11-16T19:53:01.128Z,21.67
2022-11-16T19:55:31.052Z,22.75
2022-11-16T19:57:57.706Z,24.88
2022-11-16T20:00:26.250Z,23.92
2022-11-16T20:03:01.081Z,23.73
2022-11-16T20:05:30.085Z,24.27
2022-11-16T20:07:58.792Z,23.83
2022-11-16T20:10:25.842Z,26.27
2022-11-16T20:12:52.709Z,26.10
2022-11-16T20:15:19.496Z,27.92
2022-11-16T20:17:46.287Z,26.17
2022-11-16T20:20:13.646Z,26.52
2022-11-16T20:22:40.412Z,26.95
2022-11-16T20:25:07.674Z,26.80
2022-11-16T20:27:35.260Z,26.30
2022-11-16T20:30:07.994Z,26.17
2022-11-16T20:32:36.932Z,24.60
2022-11-16T20:35:04.357Z,25.60
2022-11-16T20:37:31.249Z,26.38
2022-11-16T20:39:58.542Z,31.23
2022-11-16T20:42:25.688Z,27.48
2022-11-16T20:44:52.516Z,26.83
2022-11-16T20:47:19.502Z,26.33
2022-11-16T20:49:46.284Z,26.48
2022-11-16T20:52:12.971Z,27.05
2022-11-16T20:54:39.995Z,25.92
2022-11-16T20:57:06.652Z,24.65
2022-11-16T20:59:33.411Z,24.27
2022-11-16T21:02:00.121Z,22.55
2022-11-16T21:04:27.245Z,24.95
2022-11-16T21:06:54.081Z,24.77
2022-11-16T21:09:25.719Z,21.40
2022-11-16T21:12:10.868Z,20.73
2022-11-16T21:14:37.628Z,19.00
2022-11-16T21:17:04.387Z,18.67
2022-11-16T21:19:31.168Z,20.83
2022-11-16T21:21:57.879Z,19.65
2022-11-16T21:24:28.350Z,17.23
2022-11-16T21:26:55.269Z,16.70
2022-11-16T21:29:26.108Z,16.98
2022-11-16T21:31:52.894Z,16.08
2022-11-16T21:34:20.237Z,16.77
2022-11-16T21:36:47.610Z,20.20
2022-11-16T21:39:14.333Z,20.55
2022-11-16T21:41:41.162Z,19.08
2022-11-16T21:44:08.039Z,18.83
2022-11-16T21:46:35.015Z,17.75
2022-11-16T21:49:01.868Z,18.90
2022-11-16T21:51:28.702Z,18.00
2022-11-16T21:53:55.538Z,20.08
2022-11-16T21:56:23.761Z,19.98
2022-11-16T21:58:52.816Z,19.40
2022-11-16T22:01:19.938Z,36.47
2022-11-16T22:03:47.028Z,21.75
2022-11-16T22:06:34.193Z,19.92
2022-11-16T22:09:01.477Z,20.40
2022-11-16T22:11:28.450Z,21.35
2022-11-16T22:13:55.319Z,20.75
2022-11-16T22:16:23.527Z,22.88
2022-11-16T22:18:50.782Z,23.23
2022-11-16T22:21:17.872Z,23.88
2022-11-16T22:23:44.872Z,24.30
2022-11-16T22:26:15.335Z,20.10
2022-11-16T22:28:42.603Z,21.35
2022-11-16T22:31:10.904Z,20.23
2022-11-16T22:33:37.992Z,20.40
2022-11-16T22:36:05.236Z,20.98
2022-11-16T22:38:32.198Z,22.45
2022-11-16T22:40:58.870Z,21.52
2022-11-16T22:43:26.629Z,20.42
2022-11-16T22:45:56.886Z,20.25
2022-11-16T22:48:23.559Z,17.95
2022-11-16T22:50:50.684Z,18.98
2022-11-16T22:53:18.178Z,19.23
2022-11-16T22:55:45.012Z,18.55
2022-11-16T22:58:11.911Z,26.33
2022-11-16T23:00:41.939Z,26.73
2022-11-16T23:03:09.277Z,34.10
2022-11-16T23:05:36.054Z,31.00
2022-11-16T23:08:02.729Z,32.05
2022-11-16T23:10:49.543Z,30.88
2022-11-16T23:13:34.704Z,29.42
2022-11-16T23:16:04.691Z,21.02
2022-11-16T23:18:31.447Z,22.58
2022-11-16T23:21:17.024Z,20.02
2022-11-16T23:24:02.428Z,28.98
2022-11-16T23:26:47.769Z,26.05
2022-11-16T23:29:14.816Z,24.33
2022-11-16T23:31:41.955Z,15.55
2022-11-16T23:34:08.837Z,15.93
2022-11-16T23:36:35.481Z,15.02
2022-11-16T23:39:02.178Z,17.00
2022-11-16T23:41:47.664Z,16.20
2022-11-16T23:44:14.493Z,14.55
2022-11-16T23:46:41.181Z,14.60
2022-11-16T23:49:07.858Z,16.02
2022-11-16T23:51:37.439Z,15.93
2022-11-16T23:54:04.905Z,14.77
2022-11-16T23:56:34.545Z,18.45
2022-11-16T23:59:01.407Z,19.70
